Wes Sellars — WDF9302 — position and weather

sailwx.info

Track history (hours):
 
Tides and Currents Weather Stations Pressure Air Temp Water Temp Dewpoint Dewpoint Depression Visibility Wind Speed Wind Dir Waves Ship Positions

Wes Sellars

Owner: Florida Marine, LLC, Mandeville, LA. More information available from US FCC via Universal Licensing System and Coast Guard Vessel Documentation Center.

Last reported at 2015-May-24 10:33 UTC. Time now 2015-May-24 11:20 UTC.
Position N 29°44' W 095°12'.

Length 27 m.

Type: Towing. MMSI: 367503760.

Date/timePositionNaut miles runAvg speedWind from/ knotsBaromVisibWave heightAir tempDewpointWater temp
2015-May-24 10:33N 29°44' W 095°12'0 0.0
2015-May-24 09:33N 29°44' W 095°12'0 0.0
2015-May-24 08:33N 29°44' W 095°12'0 0.0
2015-May-24 07:33N 29°44' W 095°12'0 0.0
2015-May-24 06:33N 29°44' W 095°12'0 0.0
2015-May-24 05:33N 29°44' W 095°12'0 0.0
2015-May-24 04:33N 29°44' W 095°12'0 0.0
2015-May-24 03:33N 29°44' W 095°12'0 0.0
2015-May-24 02:33N 29°44' W 095°12'0 0.0
2015-May-24 01:33N 29°44' W 095°12'0 0.0
2015-May-24 00:33N 29°44' W 095°12'0 0.0
2015-May-23 23:33N 29°44' W 095°12'0 0.0
2015-May-23 22:33N 29°44' W 095°12'0 0.0
2015-May-23 21:33N 29°44' W 095°12'0 0.0
2015-May-23 20:33N 29°44' W 095°12'0 0.0
2015-May-23 19:33N 29°44' W 095°12'0 0.0
2015-May-23 18:33N 29°44' W 095°12'0 0.0
2015-May-23 17:33N 29°44' W 095°12'0 0.0
2015-May-23 16:33N 29°44' W 095°12'0 0.0
2015-May-23 15:34N 29°44' W 095°12'0 0.0
2015-May-23 14:33N 29°44' W 095°12'0 0.0
2015-May-23 13:33N 29°44' W 095°12'0 0.0
2015-May-23 12:33N 29°44' W 095°12'0 0.0
2015-May-23 11:33N 29°44' W 095°12'0 0.0
2015-May-23 10:33N 29°44' W 095°12'0 0.0
2015-May-23 09:33N 29°44' W 095°12'0 0.0
2015-May-23 08:33N 29°44' W 095°12'0 0.0
2015-May-23 07:33N 29°44' W 095°12'0 0.0
2015-May-23 06:33N 29°44' W 095°12'0 0.0
2015-May-23 05:33N 29°44' W 095°12'0 0.0
2015-May-23 04:33N 29°44' W 095°12'0 0.0
2015-May-23 03:33N 29°44' W 095°12'0 0.0
2015-May-23 02:33N 29°44' W 095°12'0 0.0
2015-May-23 01:33N 29°44' W 095°12'0 0.0
2015-May-23 00:33N 29°44' W 095°12'0 0.0
2015-May-22 23:33N 29°44' W 095°12'0 0.0
2015-May-22 22:33N 29°44' W 095°12'0 0.0
2015-May-22 21:33N 29°44' W 095°12'0 0.0
2015-May-22 20:33N 29°44' W 095°12'1 0.5
2015-May-22 19:33N 29°45' W 095°12'6 6.1
2015-May-22 18:33N 29°46' W 095°05'2 1.8
2015-May-22 17:33N 29°47' W 095°04'0 0.1
2015-May-22 16:33N 29°47' W 095°04'1 1.1
2015-May-22 15:33N 29°46' W 095°05'1 1.3
2015-May-22 14:33N 29°46' W 095°06'0 0.0
2015-May-22 13:33N 29°46' W 095°06'0 0.0
2015-May-22 12:33N 29°46' W 095°06'0 0.0
2015-May-22 11:33N 29°46' W 095°06'0 0.0
2015-May-22 10:33N 29°46' W 095°06'0 0.0
2015-May-22 09:33N 29°46' W 095°06'0 0.0
2015-May-22 08:27N 29°46' W 095°06'0 0.0
2015-May-22 07:31N 29°46' W 095°06'0 0.0
2015-May-22 06:29N 29°46' W 095°06'0 0.0
2015-May-22 05:29N 29°46' W 095°06'0 0.0
2015-May-22 04:31N 29°46' W 095°06'0 0.0
2015-May-22 03:32N 29°46' W 095°06'0 0.0
2015-May-22 02:33N 29°46' W 095°06'0 0.0
2015-May-22 01:33N 29°46' W 095°06'0 0.0
2015-May-22 00:32N 29°46' W 095°06'0 0.0
2015-May-21 23:26N 29°46' W 095°06'0 0.0
2015-May-21 22:33N 29°46' W 095°06'0 0.0
2015-May-21 21:33N 29°46' W 095°06'0 0.0
2015-May-21 20:33N 29°46' W 095°06'0 0.0
2015-May-21 19:33N 29°46' W 095°06'0 0.0
2015-May-21 18:32N 29°46' W 095°06'0 0.0
2015-May-21 17:24N 29°46' W 095°06'0 0.0
2015-May-21 16:33N 29°46' W 095°06'0 0.0
2015-May-21 15:33N 29°46' W 095°06'0 0.0
2015-May-21 14:33N 29°46' W 095°06'0 0.0
2015-May-21 13:33N 29°46' W 095°06'0 0.0
2015-May-21 12:33N 29°46' W 095°06'0 0.0
2015-May-21 11:33N 29°46' W 095°06'0 0.0
2015-May-21 10:28N 29°46' W 095°06'0 0.0
2015-May-21 09:33N 29°46' W 095°06'0 0.0
2015-May-21 08:33N 29°46' W 095°06'0 0.0
2015-May-21 07:33N 29°46' W 095°06'0 0.0
2015-May-21 06:33N 29°46' W 095°06'0 0.0
2015-May-21 05:33N 29°46' W 095°06'0 0.0
2015-May-21 04:33N 29°46' W 095°06'0 0.0
2015-May-21 03:33N 29°46' W 095°06'0 0.0
2015-May-21 02:33N 29°46' W 095°06'0 0.0
2015-May-21 01:33N 29°46' W 095°06'0 0.0
2015-May-21 00:32N 29°46' W 095°06'4 4.3
2015-May-20 23:33N 29°45' W 095°11'2 1.5
2015-May-20 22:33N 29°44' W 095°12'0 0.0
2015-May-20 21:33N 29°44' W 095°12'0 0.0
2015-May-20 20:33N 29°44' W 095°12'0 0.0
2015-May-20 19:33N 29°44' W 095°12'0 0.0
2015-May-20 18:33N 29°44' W 095°12'0 0.0
2015-May-20 17:33N 29°44' W 095°12'0 0.0
2015-May-20 16:33N 29°44' W 095°12'0 0.0
2015-May-20 15:33N 29°44' W 095°12'0 0.0
2015-May-20 14:33N 29°44' W 095°12'0 0.0
2015-May-20 13:33N 29°44' W 095°12'4 4.3
2015-May-20 12:33N 29°44' W 095°07'2 2.1
2015-May-20 11:28N 29°46' W 095°06'0 0.0
2015-May-20 10:27N 29°46' W 095°06'0 0.0
2015-May-20 09:32N 29°46' W 095°06'0 0.0
2015-May-20 08:27N 29°46' W 095°06'0 0.0
2015-May-20 07:31N 29°46' W 095°06'0 0.0
2015-May-20 06:14N 29°46' W 095°06'0 0.0
2015-May-20 05:27N 29°46' W 095°06'0 0.0
2015-May-20 04:33N 29°46' W 095°06'0 0.0
2015-May-20 03:33N 29°46' W 095°06'0 0.0
2015-May-20 02:33N 29°46' W 095°06'0 0.0
2015-May-20 01:33N 29°46' W 095°06'0 0.0
2015-May-20 00:33N 29°46' W 095°06'0 0.0
2015-May-19 23:33N 29°46' W 095°06'0 0.0
2015-May-19 22:33N 29°46' W 095°06'0 0.0
2015-May-19 21:33N 29°46' W 095°06'0 0.0
2015-May-19 20:31N 29°46' W 095°06'0 0.0
2015-May-19 19:33N 29°46' W 095°06'0 0.0
2015-May-19 18:33N 29°46' W 095°06'0 0.0
2015-May-19 17:33N 29°46' W 095°06'1 1.4
2015-May-19 16:33N 29°47' W 095°05'1 1.2
2015-May-19 15:34N 29°46' W 095°06'1 0.6
2015-May-19 14:33N 29°46' W 095°06'0 0.0
2015-May-19 13:33N 29°46' W 095°06'0 0.0
2015-May-19 12:33N 29°46' W 095°06'0 0.0
2015-May-19 11:33N 29°46' W 095°06'0 0.0
2015-May-19 10:32N 29°46' W 095°06'0 0.0
2015-May-19 09:30N 29°46' W 095°06'0 0.0
2015-May-19 08:33N 29°46' W 095°06'0 0.0
2015-May-19 07:33N 29°46' W 095°06'0 0.0
2015-May-19 06:33N 29°46' W 095°06'0 0.0
2015-May-19 05:33N 29°46' W 095°06'0 0.0
2015-May-19 04:33N 29°46' W 095°06'0 0.0
2015-May-19 03:33N 29°46' W 095°06'0 0.0
2015-May-19 02:33N 29°46' W 095°06'0 0.0
2015-May-19 01:33N 29°46' W 095°06'0 0.0
2015-May-19 00:33N 29°46' W 095°06'0 0.0
2015-May-18 23:33N 29°46' W 095°06'0 0.0
2015-May-18 22:33N 29°46' W 095°06'0 0.0
2015-May-18 21:33N 29°46' W 095°06'0 0.0
2015-May-18 20:33N 29°46' W 095°06'0 0.0
2015-May-18 19:33N 29°46' W 095°06'0 0.0
2015-May-18 18:33N 29°46' W 095°06'1 0.6
2015-May-18 17:34N 29°46' W 095°06'1 1.2
2015-May-18 16:33N 29°47' W 095°04'2 2.1
2015-May-18 15:34N 29°46' W 095°07'0 0.1
2015-May-18 14:33N 29°46' W 095°07'0 0.0
2015-May-18 13:33N 29°46' W 095°07'0 0.0
2015-May-18 12:33N 29°46' W 095°07'0 0.0
2015-May-18 11:33N 29°46' W 095°07'0 0.0
2015-May-18 10:33N 29°46' W 095°07'0 0.0
2015-May-18 09:33N 29°46' W 095°07'0 0.0
2015-May-18 08:33N 29°46' W 095°07'0 0.0
2015-May-18 07:33N 29°46' W 095°07'0 0.0
2015-May-18 06:33N 29°46' W 095°07'0 0.0
2015-May-18 05:33N 29°46' W 095°07'0 0.1
2015-May-18 04:33N 29°46' W 095°07'0 0.0
2015-May-18 03:33N 29°46' W 095°07'0 0.0
2015-May-18 02:33N 29°46' W 095°07'0 0.0
2015-May-18 01:33N 29°46' W 095°07'0 0.0
2015-May-18 00:33N 29°46' W 095°07'0 0.0
2015-May-17 23:33N 29°46' W 095°07'0 0.0
2015-May-17 22:33N 29°46' W 095°07'0 0.0
2015-May-17 21:33N 29°46' W 095°07'0 0.0
2015-May-17 20:33N 29°46' W 095°07'0 0.0
2015-May-17 19:33N 29°46' W 095°07'0 0.0
2015-May-17 18:33N 29°46' W 095°07'0 0.0
2015-May-17 17:33N 29°46' W 095°07'0 0.0
2015-May-17 16:33N 29°46' W 095°07'0 0.0
2015-May-17 15:33N 29°46' W 095°07'0 0.0
2015-May-17 14:33N 29°46' W 095°07'0 0.0
2015-May-17 13:33N 29°46' W 095°07'0 0.0
2015-May-17 12:33N 29°46' W 095°07'0 0.0
2015-May-17 11:33N 29°46' W 095°07'0 0.1
2015-May-17 10:34N 29°46' W 095°07'0 0.1
2015-May-17 09:32N 29°46' W 095°07'0 0.0
2015-May-17 08:33N 29°46' W 095°07'0 0.0
2015-May-17 07:33N 29°46' W 095°07'0 0.0
2015-May-17 06:33N 29°46' W 095°07'0 0.0
2015-May-17 05:33N 29°46' W 095°07'0 0.0
2015-May-17 04:33N 29°46' W 095°07'0 0.0
2015-May-17 03:33N 29°46' W 095°07'0 0.0
2015-May-17 02:33N 29°46' W 095°07'0 0.0
2015-May-17 01:33N 29°46' W 095°07'0 0.2
2015-May-17 00:33N 29°46' W 095°07'1 1.0
2015-May-16 23:34N 29°45' W 095°06'2 2.3
2015-May-16 22:33N 29°47' W 095°04'3 2.6
2015-May-16 21:33N 29°45' W 095°04'15 7.3
2015-May-16 19:33N 29°33' W 094°54'8 8.2
2015-May-16 18:32N 29°25' W 094°50'  
Track history (hours):
 
Tides and Currents Weather Stations Pressure Air Temp Water Temp Dewpoint Dewpoint Depression Visibility Wind Speed Wind Dir Waves Ship Positions

Wes Sellars

Owner: Florida Marine, LLC, Mandeville, LA. More information available from US FCC via Universal Licensing System and Coast Guard Vessel Documentation Center.

Last reported at 2015-May-24 10:33 UTC. Time now 2015-May-24 11:20 UTC.
Position N 29°44' W 095°12'.

Length 27 m.

Type: Towing. MMSI: 367503760.

Date/timePositionNaut miles runAvg speedWind from/ knotsBaromVisibWave heightAir tempDewpointWater temp
2015-May-24 10:33N 29°44' W 095°12'0 0.0
2015-May-24 09:33N 29°44' W 095°12'0 0.0
2015-May-24 08:33N 29°44' W 095°12'0 0.0
2015-May-24 07:33N 29°44' W 095°12'0 0.0
2015-May-24 06:33N 29°44' W 095°12'0 0.0
2015-May-24 05:33N 29°44' W 095°12'0 0.0
2015-May-24 04:33N 29°44' W 095°12'0 0.0
2015-May-24 03:33N 29°44' W 095°12'0 0.0
2015-May-24 02:33N 29°44' W 095°12'0 0.0
2015-May-24 01:33N 29°44' W 095°12'0 0.0
2015-May-24 00:33N 29°44' W 095°12'0 0.0
2015-May-23 23:33N 29°44' W 095°12'0 0.0
2015-May-23 22:33N 29°44' W 095°12'0 0.0
2015-May-23 21:33N 29°44' W 095°12'0 0.0
2015-May-23 20:33N 29°44' W 095°12'0 0.0
2015-May-23 19:33N 29°44' W 095°12'0 0.0
2015-May-23 18:33N 29°44' W 095°12'0 0.0
2015-May-23 17:33N 29°44' W 095°12'0 0.0
2015-May-23 16:33N 29°44' W 095°12'0 0.0
2015-May-23 15:34N 29°44' W 095°12'0 0.0
2015-May-23 14:33N 29°44' W 095°12'0 0.0
2015-May-23 13:33N 29°44' W 095°12'0 0.0
2015-May-23 12:33N 29°44' W 095°12'0 0.0
2015-May-23 11:33N 29°44' W 095°12'0 0.0
2015-May-23 10:33N 29°44' W 095°12'0 0.0
2015-May-23 09:33N 29°44' W 095°12'0 0.0
2015-May-23 08:33N 29°44' W 095°12'0 0.0
2015-May-23 07:33N 29°44' W 095°12'0 0.0
2015-May-23 06:33N 29°44' W 095°12'0 0.0
2015-May-23 05:33N 29°44' W 095°12'0 0.0
2015-May-23 04:33N 29°44' W 095°12'0 0.0
2015-May-23 03:33N 29°44' W 095°12'0 0.0
2015-May-23 02:33N 29°44' W 095°12'0 0.0
2015-May-23 01:33N 29°44' W 095°12'0 0.0
2015-May-23 00:33N 29°44' W 095°12'0 0.0
2015-May-22 23:33N 29°44' W 095°12'0 0.0
2015-May-22 22:33N 29°44' W 095°12'0 0.0
2015-May-22 21:33N 29°44' W 095°12'0 0.0
2015-May-22 20:33N 29°44' W 095°12'1 0.5
2015-May-22 19:33N 29°45' W 095°12'6 6.1
2015-May-22 18:33N 29°46' W 095°05'2 1.8
2015-May-22 17:33N 29°47' W 095°04'0 0.1
2015-May-22 16:33N 29°47' W 095°04'1 1.1
2015-May-22 15:33N 29°46' W 095°05'1 1.3
2015-May-22 14:33N 29°46' W 095°06'0 0.0
2015-May-22 13:33N 29°46' W 095°06'0 0.0
2015-May-22 12:33N 29°46' W 095°06'0 0.0
2015-May-22 11:33N 29°46' W 095°06'0 0.0
2015-May-22 10:33N 29°46' W 095°06'0 0.0
2015-May-22 09:33N 29°46' W 095°06'0 0.0
2015-May-22 08:27N 29°46' W 095°06'0 0.0
2015-May-22 07:31N 29°46' W 095°06'0 0.0
2015-May-22 06:29N 29°46' W 095°06'0 0.0
2015-May-22 05:29N 29°46' W 095°06'0 0.0
2015-May-22 04:31N 29°46' W 095°06'0 0.0
2015-May-22 03:32N 29°46' W 095°06'0 0.0
2015-May-22 02:33N 29°46' W 095°06'0 0.0
2015-May-22 01:33N 29°46' W 095°06'0 0.0
2015-May-22 00:32N 29°46' W 095°06'0 0.0
2015-May-21 23:26N 29°46' W 095°06'0 0.0
2015-May-21 22:33N 29°46' W 095°06'0 0.0
2015-May-21 21:33N 29°46' W 095°06'0 0.0
2015-May-21 20:33N 29°46' W 095°06'0 0.0
2015-May-21 19:33N 29°46' W 095°06'0 0.0
2015-May-21 18:32N 29°46' W 095°06'0 0.0
2015-May-21 17:24N 29°46' W 095°06'0 0.0
2015-May-21 16:33N 29°46' W 095°06'0 0.0
2015-May-21 15:33N 29°46' W 095°06'0 0.0
2015-May-21 14:33N 29°46' W 095°06'0 0.0
2015-May-21 13:33N 29°46' W 095°06'0 0.0
2015-May-21 12:33N 29°46' W 095°06'0 0.0
2015-May-21 11:33N 29°46' W 095°06'0 0.0
2015-May-21 10:28N 29°46' W 095°06'0 0.0
2015-May-21 09:33N 29°46' W 095°06'0 0.0
2015-May-21 08:33N 29°46' W 095°06'0 0.0
2015-May-21 07:33N 29°46' W 095°06'0 0.0
2015-May-21 06:33N 29°46' W 095°06'0 0.0
2015-May-21 05:33N 29°46' W 095°06'0 0.0
2015-May-21 04:33N 29°46' W 095°06'0 0.0
2015-May-21 03:33N 29°46' W 095°06'0 0.0
2015-May-21 02:33N 29°46' W 095°06'0 0.0
2015-May-21 01:33N 29°46' W 095°06'0 0.0
2015-May-21 00:32N 29°46' W 095°06'4 4.3
2015-May-20 23:33N 29°45' W 095°11'2 1.5
2015-May-20 22:33N 29°44' W 095°12'0 0.0
2015-May-20 21:33N 29°44' W 095°12'0 0.0
2015-May-20 20:33N 29°44' W 095°12'0 0.0
2015-May-20 19:33N 29°44' W 095°12'0 0.0
2015-May-20 18:33N 29°44' W 095°12'0 0.0
2015-May-20 17:33N 29°44' W 095°12'0 0.0
2015-May-20 16:33N 29°44' W 095°12'0 0.0
2015-May-20 15:33N 29°44' W 095°12'0 0.0
2015-May-20 14:33N 29°44' W 095°12'0 0.0
2015-May-20 13:33N 29°44' W 095°12'4 4.3
2015-May-20 12:33N 29°44' W 095°07'2 2.1
2015-May-20 11:28N 29°46' W 095°06'0 0.0
2015-May-20 10:27N 29°46' W 095°06'0 0.0
2015-May-20 09:32N 29°46' W 095°06'0 0.0
2015-May-20 08:27N 29°46' W 095°06'0 0.0
2015-May-20 07:31N 29°46' W 095°06'0 0.0
2015-May-20 06:14N 29°46' W 095°06'0 0.0
2015-May-20 05:27N 29°46' W 095°06'0 0.0
2015-May-20 04:33N 29°46' W 095°06'0 0.0
2015-May-20 03:33N 29°46' W 095°06'0 0.0
2015-May-20 02:33N 29°46' W 095°06'0 0.0
2015-May-20 01:33N 29°46' W 095°06'0 0.0
2015-May-20 00:33N 29°46' W 095°06'0 0.0
2015-May-19 23:33N 29°46' W 095°06'0 0.0
2015-May-19 22:33N 29°46' W 095°06'0 0.0
2015-May-19 21:33N 29°46' W 095°06'0 0.0
2015-May-19 20:31N 29°46' W 095°06'0 0.0
2015-May-19 19:33N 29°46' W 095°06'0 0.0
2015-May-19 18:33N 29°46' W 095°06'0 0.0
2015-May-19 17:33N 29°46' W 095°06'1 1.4
2015-May-19 16:33N 29°47' W 095°05'1 1.2
2015-May-19 15:34N 29°46' W 095°06'1 0.6
2015-May-19 14:33N 29°46' W 095°06'0 0.0
2015-May-19 13:33N 29°46' W 095°06'0 0.0
2015-May-19 12:33N 29°46' W 095°06'0 0.0
2015-May-19 11:33N 29°46' W 095°06'0 0.0
2015-May-19 10:32N 29°46' W 095°06'0 0.0
2015-May-19 09:30N 29°46' W 095°06'0 0.0
2015-May-19 08:33N 29°46' W 095°06'0 0.0
2015-May-19 07:33N 29°46' W 095°06'0 0.0
2015-May-19 06:33N 29°46' W 095°06'0 0.0
2015-May-19 05:33N 29°46' W 095°06'0 0.0
2015-May-19 04:33N 29°46' W 095°06'0 0.0
2015-May-19 03:33N 29°46' W 095°06'0 0.0
2015-May-19 02:33N 29°46' W 095°06'0 0.0
2015-May-19 01:33N 29°46' W 095°06'0 0.0
2015-May-19 00:33N 29°46' W 095°06'0 0.0
2015-May-18 23:33N 29°46' W 095°06'0 0.0
2015-May-18 22:33N 29°46' W 095°06'0 0.0
2015-May-18 21:33N 29°46' W 095°06'0 0.0
2015-May-18 20:33N 29°46' W 095°06'0 0.0
2015-May-18 19:33N 29°46' W 095°06'0 0.0
2015-May-18 18:33N 29°46' W 095°06'1 0.6
2015-May-18 17:34N 29°46' W 095°06'1 1.2
2015-May-18 16:33N 29°47' W 095°04'2 2.1
2015-May-18 15:34N 29°46' W 095°07'0 0.1
2015-May-18 14:33N 29°46' W 095°07'0 0.0
2015-May-18 13:33N 29°46' W 095°07'0 0.0
2015-May-18 12:33N 29°46' W 095°07'0 0.0
2015-May-18 11:33N 29°46' W 095°07'0 0.0
2015-May-18 10:33N 29°46' W 095°07'0 0.0
2015-May-18 09:33N 29°46' W 095°07'0 0.0
2015-May-18 08:33N 29°46' W 095°07'0 0.0
2015-May-18 07:33N 29°46' W 095°07'0 0.0
2015-May-18 06:33N 29°46' W 095°07'0 0.0
2015-May-18 05:33N 29°46' W 095°07'0 0.1
2015-May-18 04:33N 29°46' W 095°07'0 0.0
2015-May-18 03:33N 29°46' W 095°07'0 0.0
2015-May-18 02:33N 29°46' W 095°07'0 0.0
2015-May-18 01:33N 29°46' W 095°07'0 0.0
2015-May-18 00:33N 29°46' W 095°07'0 0.0
2015-May-17 23:33N 29°46' W 095°07'0 0.0
2015-May-17 22:33N 29°46' W 095°07'0 0.0
2015-May-17 21:33N 29°46' W 095°07'0 0.0
2015-May-17 20:33N 29°46' W 095°07'0 0.0
2015-May-17 19:33N 29°46' W 095°07'0 0.0
2015-May-17 18:33N 29°46' W 095°07'0 0.0
2015-May-17 17:33N 29°46' W 095°07'0 0.0
2015-May-17 16:33N 29°46' W 095°07'0 0.0
2015-May-17 15:33N 29°46' W 095°07'0 0.0
2015-May-17 14:33N 29°46' W 095°07'0 0.0
2015-May-17 13:33N 29°46' W 095°07'0 0.0
2015-May-17 12:33N 29°46' W 095°07'0 0.0
2015-May-17 11:33N 29°46' W 095°07'0 0.1
2015-May-17 10:34N 29°46' W 095°07'0 0.1
2015-May-17 09:32N 29°46' W 095°07'0 0.0
2015-May-17 08:33N 29°46' W 095°07'0 0.0
2015-May-17 07:33N 29°46' W 095°07'0 0.0
2015-May-17 06:33N 29°46' W 095°07'0 0.0
2015-May-17 05:33N 29°46' W 095°07'0 0.0
2015-May-17 04:33N 29°46' W 095°07'0 0.0
2015-May-17 03:33N 29°46' W 095°07'0 0.0
2015-May-17 02:33N 29°46' W 095°07'0 0.0
2015-May-17 01:33N 29°46' W 095°07'0 0.2
2015-May-17 00:33N 29°46' W 095°07'1 1.0
2015-May-16 23:34N 29°45' W 095°06'2 2.3
2015-May-16 22:33N 29°47' W 095°04'3 2.6
2015-May-16 21:33N 29°45' W 095°04'15 7.3
2015-May-16 19:33N 29°33' W 094°54'8 8.2
2015-May-16 18:32N 29°25' W 094°50'  

Dump ship's entire track history